Startpagina
METAR-TAF:

METAR-TAF

Vliegvelden :

Bristol International Airport

Bristol, Engeland

breedte: 51-23N, lengte: 002-43W, hoogte: 189 m

Actueel weer

Dit bericht is 43 minuten geleden gemaakt, om 09:50 UTC
Wind 4 kt uit het zuidwesten, variërend tussen het zuidoosten en het westnoordwesten
Temperatuur 17°C
Vochtigheid 68%
Druk 1029 hPa
Zicht 10 km of meer

METAR: EGGD 120950Z AUTO 22004KT 140V300 9999 NCD 17/11 Q1029

Tijdstip: 11:33 (10:33 UTC)

Verwachting

Dit bericht is 5 uur en het 29 minuten geleden gemaakt, om 05:04 UTC
Verwachting geldig van 12 om 06 UTC tot 13 om 06 UTC
Wind 5 kt uit het oostnoordoosten
Zicht 10 km of meer
Weinig wolken op 4500 ft
Wijzigt naar
van 12 om 12 UTC tot 12 om 15 UTC
Wind 10 kt uit het westen

TAF: EGGD 120504Z 1206/1306 07005KT 9999 FEW045 BECMG 1212/1215 27010KT

Waarnemingen en weersverwachtingen van meer dan 4000 vliegvelden (METAR en TAF).

De beschikbare stations zijn de gele en rode punten op de kaart.

Ga met uw muis naar het station om de naam te zien.

Klik dan om waarnemingen en weersverwachtingen te zien.

kaart wijzigen: klik op de groene knoppen met een zwart kruis om in te zoomen, op de groene knop met een streepje om uit te zoomen of op de groene pijlen voor aangrenzende kaarten.


METAR-TAF: